Time;durP1;ratioP1;P1;durP2;ratioP2;P2;SDS_P1;SDS_P2;PMS_P1;PMS_P2;Temp;Humidity;BMP_temperature;BMP_pressure;BME280_temperature;BME280_humidity;BME280_pressure;Samples;Min_cycle;Max_cycle;Signal;HPM_P1;HPM_P2
2022/09/03 00:02:06;;;;;;;3.92;1.95;;;;;;;15.25;90.99;96258.28;4975065;28;20038;-74
2022/09/03 00:04:43;;;;;;;6.18;1.42;;;;;;;15.14;90.74;96254.03;4976342;28;20461;-73
2022/09/03 00:07:25;;;;;;;3.05;1.52;;;;;;;15.13;100.00;96257.03;4976299;28;20655;-73
2022/09/03 00:09:58;;;;;;;6.00;1.35;;;;;;;15.07;96.10;96250.88;4992759;28;20035;-72
2022/09/03 00:12:29;;;;;;;3.88;1.63;;;;;;;14.79;90.11;96257.03;4990733;28;20046;-72
2022/09/03 00:15:22;;;;;;;5.82;1.42;;;;;;;14.63;92.57;96249.03;4976539;28;20049;-73
2022/09/03 00:18:03;;;;;;;3.58;1.60;;;;;;;14.44;91.67;96256.91;4976171;28;20547;-72
2022/09/03 00:20:42;;;;;;;3.20;1.30;;;;;;;14.34;92.19;96259.66;4974519;28;20164;-74
2022/09/03 00:23:29;;;;;;;6.82;1.45;;;;;;;14.54;92.56;96256.06;4976089;28;20049;-73
2022/09/03 00:26:12;;;;;;;3.88;1.80;;;;;;;14.52;92.12;96247.47;4975714;28;20635;-73
2022/09/03 00:28:44;;;;;;;3.90;1.50;;;;;;;14.40;91.77;96257.75;4976150;28;20061;-72
2022/09/03 00:31:26;;;;;;;4.80;1.60;;;;;;;14.51;92.83;96253.16;4975896;28;20109;-73
2022/09/03 00:34:08;;;;;;;3.33;1.40;;;;;;;14.38;92.63;96257.22;4991762;28;20053;-73
2022/09/03 00:36:41;;;;;;;3.15;1.42;;;;;;;14.28;92.59;96252.69;4976214;28;20054;-73
2022/09/03 00:39:16;;;;;;;9.13;1.65;;;;;;;14.16;93.52;96249.50;4973138;28;20371;-73
2022/09/03 00:42:19;;;;;;;2.95;1.38;;;;;;;14.05;94.15;96254.13;4974048;28;20278;-72
2022/09/03 00:44:59;;;;;;;3.53;1.52;;;;;;;14.09;94.88;96251.72;4977488;28;20390;-73
2022/09/03 00:47:56;;;;;;;3.38;1.45;;;;;;;14.17;95.79;96248.44;4974073;28;20082;-72
2022/09/03 00:50:44;;;;;;;3.75;1.40;;;;;;;14.28;100.00;96238.44;4975410;28;20053;-73
2022/09/03 00:53:15;;;;;;;3.00;1.60;;;;;;;14.17;95.65;96251.94;4975329;28;20077;-73
2022/09/03 00:56:00;;;;;;;3.85;1.70;;;;;;;14.38;100.00;96238.38;4990507;28;20431;-73
2022/09/03 00:58:34;;;;;;;3.78;1.65;;;;;;;14.33;94.67;96243.78;4974332;28;20476;-73
2022/09/03 01:01:09;;;;;;;5.30;1.70;;;;;;;14.18;98.33;96240.09;4975427;28;20489;-74
2022/09/03 01:03:41;;;;;;;5.07;1.80;;;;;;;14.32;98.17;96232.22;4974724;28;20569;-73
2022/09/03 01:06:18;;;;;;;3.05;1.40;;;;;;;14.45;94.71;96228.94;4975336;28;20061;-73
2022/09/03 01:09:00;;;;;;;4.82;1.67;;;;;;;14.37;96.08;96231.38;4989228;28;20545;-73
2022/09/03 01:11:44;;;;;;;;;;;;;;;14.32;97.00;96239.47;4990878;28;20326;-74
2022/09/03 01:14:39;;;;;;;5.70;1.70;;;;;;;14.22;100.00;96229.56;4976073;28;19917;-74
2022/09/03 01:17:23;;;;;;;4.30;1.90;;;;;;;14.17;98.41;96233.09;4975171;28;20038;-74
2022/09/03 01:19:58;;;;;;;3.10;1.60;;;;;;;14.23;96.40;96231.16;4974602;28;20042;-73
2022/09/03 01:22:56;;;;;;;5.93;1.40;;;;;;;14.40;100.00;96228.16;4973695;28;20054;-73
2022/09/03 01:25:41;;;;;;;3.38;1.60;;;;;;;14.31;100.00;96235.97;4975348;28;20069;-73
2022/09/03 01:28:22;;;;;;;2.80;1.35;;;;;;;14.12;96.10;96246.56;4975993;28;20317;-73
2022/09/03 01:31:17;;;;;;;4.55;1.60;;;;;;;14.17;98.87;96237.69;4975420;28;20508;-74
2022/09/03 01:34:09;;;;;;;3.10;1.50;;;;;;;14.32;100.00;96242.16;4989610;28;20034;-73
2022/09/03 01:36:56;;;;;;;3.42;1.60;;;;;;;14.43;100.00;96241.84;4989594;28;21149;-74
2022/09/03 01:39:39;;;;;;;3.25;1.60;;;;;;;14.56;100.00;96235.06;4974561;28;20349;-73
2022/09/03 01:42:26;;;;;;;5.80;1.60;;;;;;;14.74;100.00;96241.69;4975121;28;20120;-73
2022/09/03 01:45:20;;;;;;;5.85;1.80;;;;;;;14.66;99.03;96231.50;4990170;28;20577;-73
2022/09/03 01:48:07;;;;;;;4.10;1.48;;;;;;;14.61;100.00;96243.09;4975844;28;20046;-73
2022/09/03 01:50:38;;;;;;;4.53;1.75;;;;;;;14.56;99.70;96248.53;4970656;28;20049;-74
2022/09/03 01:53:35;;;;;;;3.60;1.45;;;;;;;14.28;100.00;96243.81;4974668;28;20501;-72
2022/09/03 01:56:38;;;;;;;3.30;1.20;;;;;;;14.35;100.00;96238.94;4975398;28;20093;-73
2022/09/03 01:59:22;;;;;;;3.70;1.77;;;;;;;14.41;97.21;96232.44;4974102;28;20042;-72
2022/09/03 02:02:11;;;;;;;6.90;1.45;;;;;;;14.45;100.00;96233.47;4973320;28;20379;-72
2022/09/03 02:04:36;;;;;;;6.22;1.80;;;;;;;14.53;100.00;96234.81;4972247;28;20137;-74
2022/09/03 02:07:02;;;;;;;4.78;1.58;;;;;;;14.49;100.00;96234.59;4972818;28;20046;-73
2022/09/03 02:09:28;;;;;;;3.40;1.60;;;;;;;14.65;100.00;96238.78;4974652;28;20070;-72
2022/09/03 02:12:08;;;;;;;2.92;1.40;;;;;;;14.72;99.18;96220.44;4973716;28;20506;-72
2022/09/03 02:14:35;;;;;;;4.07;1.60;;;;;;;14.71;100.00;96226.09;4975148;28;20053;-74
2022/09/03 02:17:04;;;;;;;4.97;1.50;;;;;;;14.65;100.00;96233.41;4974945;28;20066;-73
2022/09/03 02:19:30;;;;;;;5.82;1.75;;;;;;;14.64;100.00;96231.78;4987626;28;20073;-73
2022/09/03 02:21:56;;;;;;;3.30;1.52;;;;;;;14.62;100.00;96228.56;4989017;28;20042;-73
2022/09/03 02:24:23;;;;;;;2.80;1.40;;;;;;;14.71;100.00;96220.72;4975341;28;20065;-73
2022/09/03 02:26:49;;;;;;;4.20;1.80;;;;;;;14.56;97.66;96224.31;4972116;28;20418;-73
2022/09/03 02:29:16;;;;;;;5.28;1.58;;;;;;;14.61;100.00;96221.56;4973718;28;20129;-73
2022/09/03 02:31:42;;;;;;;2.75;1.30;;;;;;;14.71;100.00;96224.22;4972286;28;20151;-72
2022/09/03 02:34:08;;;;;;;4.07;1.58;;;;;;;14.84;100.00;96219.25;4989052;28;20034;-72
2022/09/03 02:36:37;;;;;;;6.72;1.60;;;;;;;14.71;97.10;96220.72;4974942;28;20104;-74
2022/09/03 02:39:04;;;;;;;4.57;1.50;;;;;;;14.58;100.00;96214.06;4988968;28;20038;-73
2022/09/03 02:41:30;;;;;;;8.23;1.60;;;;;;;14.68;100.00;96218.56;4973929;28;20045;-73
2022/09/03 02:44:18;;;;;;;3.03;1.50;;;;;;;14.84;100.00;96211.16;4975147;28;20046;-72
2022/09/03 02:46:49;;;;;;;5.22;1.65;;;;;;;14.53;99.47;96210.59;4972882;28;20042;-72
2022/09/03 02:49:17;;;;;;;5.00;1.80;;;;;;;14.58;100.00;96211.38;4973196;28;20383;-72
2022/09/03 02:51:43;;;;;;;4.22;1.60;;;;;;;14.39;100.00;96213.06;4971680;28;20807;-73
2022/09/03 02:54:11;;;;;;;5.03;1.63;;;;;;;14.45;100.00;96209.25;4973171;28;20050;-73
2022/09/03 02:56:38;;;;;;;3.30;1.42;;;;;;;14.34;100.00;96213.09;4987813;28;20523;-73
2022/09/03 02:59:07;;;;;;;2.88;1.60;;;;;;;14.58;100.00;96210.56;4973062;28;20040;-73
2022/09/03 03:01:33;;;;;;;3.88;1.60;;;;;;;14.36;100.00;96211.72;4956777;28;20176;-73
2022/09/03 03:03:58;;;;;;;3.90;1.48;;;;;;;14.35;100.00;96214.72;4988476;28;20038;-73
2022/09/03 03:06:24;;;;;;;5.28;1.70;;;;;;;14.33;100.00;96215.00;4971942;28;20048;-73
2022/09/03 03:08:50;;;;;;;2.75;1.55;;;;;;;14.06;100.00;96207.31;4974255;28;20042;-74
2022/09/03 03:11:18;;;;;;;4.32;1.70;;;;;;;14.07;100.00;96206.22;4972519;28;20473;-74
2022/09/03 03:13:45;;;;;;;5.13;1.80;;;;;;;14.09;100.00;96203.28;4973617;28;20671;-73
2022/09/03 03:16:11;;;;;;;4.13;1.70;;;;;;;14.28;100.00;96190.78;4973853;28;20112;-73
2022/09/03 03:18:38;;;;;;;6.03;1.60;;;;;;;14.13;100.00;96191.66;4972031;28;20049;-74
2022/09/03 03:21:09;;;;;;;3.97;1.50;;;;;;;14.30;100.00;96203.97;4973260;28;20038;-74
2022/09/03 03:23:38;;;;;;;4.00;1.55;;;;;;;14.17;100.00;96190.06;4970835;28;20421;-73
2022/09/03 03:26:06;;;;;;;5.53;1.60;;;;;;;14.28;100.00;96190.78;4974351;28;20069;-73
2022/09/03 03:28:33;;;;;;;4.90;1.55;;;;;;;14.42;100.00;96186.41;4973139;28;20571;-72
2022/09/03 03:31:08;;;;;;;9.80;1.60;;;;;;;14.47;100.00;96186.41;4972506;28;20072;-73
2022/09/03 03:33:34;;;;;;;5.43;1.80;;;;;;;14.17;100.00;96179.28;4972790;28;20402;-73
2022/09/03 03:36:18;;;;;;;4.53;1.88;;;;;;;14.13;100.00;96182.81;4989861;28;20536;-73
2022/09/03 03:38:45;;;;;;;2.85;1.50;;;;;;;14.15;100.00;96175.25;4972724;28;20046;-72
2022/09/03 03:41:20;;;;;;;4.20;1.52;;;;;;;13.88;100.00;96197.19;4970415;28;20413;-73
2022/09/03 03:43:47;;;;;;;2.95;1.63;;;;;;;13.97;100.00;96192.84;4970560;28;20035;-73
2022/09/03 03:46:13;;;;;;;6.45;1.70;;;;;;;13.56;100.00;96198.38;4972222;28;20254;-73
2022/09/03 03:48:40;;;;;;;4.18;1.48;;;;;;;13.35;100.00;96205.66;4972737;28;20482;-72
2022/09/03 03:51:09;;;;;;;5.07;1.75;;;;;;;13.18;100.00;96198.97;4972246;28;20109;-73
2022/09/03 03:53:36;;;;;;;4.03;1.52;;;;;;;13.10;100.00;96185.00;4973022;28;20267;-73
2022/09/03 03:56:05;;;;;;;3.15;1.60;;;;;;;13.17;100.00;96186.59;4973664;28;20065;-72
2022/09/03 03:58:31;;;;;;;5.93;1.70;;;;;;;13.28;100.00;96194.38;4972821;28;20386;-73
2022/09/03 04:01:08;;;;;;;3.78;1.60;;;;;;;13.21;100.00;96180.44;4972659;28;20045;-73
2022/09/03 04:03:35;;;;;;;5.38;1.70;;;;;;;13.20;100.00;96191.44;4987054;28;20062;-73
2022/09/03 04:06:01;;;;;;;3.72;1.52;;;;;;;13.10;100.00;96195.75;4974570;28;20046;-74
2022/09/03 04:08:27;;;;;;;2.80;1.55;;;;;;;13.33;100.00;96189.00;4971907;28;20232;-72
2022/09/03 04:10:53;;;;;;;4.13;1.70;;;;;;;13.39;100.00;96195.19;4972015;28;20034;-73
2022/09/03 04:13:19;;;;;;;5.95;1.70;;;;;;;13.20;100.00;96184.19;4973120;28;20070;-72
2022/09/03 04:15:44;;;;;;;3.90;1.65;;;;;;;13.15;100.00;96194.09;4973265;28;20042;-72
2022/09/03 04:18:11;;;;;;;4.00;1.70;;;;;;;13.22;100.00;96184.72;4972623;28;20575;-73
2022/09/03 04:20:37;;;;;;;4.95;2.22;;;;;;;13.21;100.00;96187.69;4971372;28;20464;-72
2022/09/03 04:23:03;;;;;;;6.50;1.83;;;;;;;13.14;100.00;96179.06;4972594;28;20212;-72
2022/09/03 04:25:29;;;;;;;4.97;2.00;;;;;;;13.14;100.00;96176.38;4972834;28;20069;-73
2022/09/03 04:27:54;;;;;;;6.88;1.60;;;;;;;13.01;100.00;96181.25;4974073;28;20046;-72
2022/09/03 04:30:20;;;;;;;5.53;1.52;;;;;;;12.96;100.00;96175.06;4972765;28;20045;-72
2022/09/03 04:32:52;;;;;;;5.55;1.85;;;;;;;13.03;100.00;96179.09;4970909;28;20046;-73
2022/09/03 04:35:19;;;;;;;3.08;1.70;;;;;;;13.04;100.00;96178.00;4969798;28;20070;-72
2022/09/03 04:37:46;;;;;;;6.18;1.80;;;;;;;13.31;100.00;96177.75;4971235;28;20033;-72
2022/09/03 04:40:12;;;;;;;3.25;1.60;;;;;;;13.15;100.00;96175.31;4971540;28;20884;-73
2022/09/03 04:42:37;;;;;;;4.63;1.50;;;;;;;13.01;100.00;96173.19;4974947;28;20062;-72
2022/09/03 04:45:04;;;;;;;4.65;2.08;;;;;;;12.97;100.00;96172.09;4978073;28;20117;-73
2022/09/03 04:47:30;;;;;;;3.08;1.67;;;;;;;12.95;100.00;96184.19;4977324;28;20042;-73
2022/09/03 04:49:55;;;;;;;3.83;1.70;;;;;;;12.90;100.00;96185.00;4973705;28;20543;-72
2022/09/03 04:52:21;;;;;;;5.20;1.90;;;;;;;12.79;100.00;96181.53;4974642;28;20042;-73
2022/09/03 04:54:46;;;;;;;5.07;1.70;;;;;;;12.76;100.00;96182.06;4974376;28;20765;-73
2022/09/03 04:57:12;;;;;;;4.97;1.67;;;;;;;12.74;100.00;96186.88;4976739;28;20494;-73
2022/09/03 04:59:39;;;;;;;6.25;1.90;;;;;;;12.73;100.00;96185.28;4975362;28;20560;-73
2022/09/03 05:02:07;;;;;;;4.70;1.55;;;;;;;12.72;100.00;96188.22;4973154;28;20047;-73
2022/09/03 05:04:32;;;;;;;2.58;1.48;;;;;;;12.73;100.00;96190.66;4976909;28;20416;-72
2022/09/03 05:06:58;;;;;;;4.25;1.88;;;;;;;12.69;100.00;96178.84;4975152;28;20038;-73
2022/09/03 05:09:23;;;;;;;5.65;2.10;;;;;;;12.72;100.00;96182.88;4975587;28;20423;-74
2022/09/03 05:11:48;;;;;;;5.13;1.85;;;;;;;12.79;100.00;96180.72;4975159;28;20042;-74
2022/09/03 05:14:14;;;;;;;4.32;2.00;;;;;;;12.89;100.00;96180.72;4976064;28;21577;-73
2022/09/03 05:16:39;;;;;;;3.30;1.65;;;;;;;13.06;100.00;96188.47;4975063;28;20212;-73
2022/09/03 05:19:06;;;;;;;5.95;2.17;;;;;;;13.05;100.00;96174.25;4975027;28;20121;-73
2022/09/03 05:21:34;;;;;;;2.80;1.70;;;;;;;13.12;100.00;96179.34;4974972;28;20042;-74
2022/09/03 05:24:00;;;;;;;3.20;1.70;;;;;;;13.22;100.00;96184.72;4974302;28;20354;-73
2022/09/03 05:26:29;;;;;;;5.70;1.80;;;;;;;13.52;100.00;96178.47;4990129;28;20034;-73
2022/09/03 05:28:56;;;;;;;3.03;1.35;;;;;;;13.43;100.00;96179.31;4975018;28;20137;-73
2022/09/03 05:31:25;;;;;;;3.85;1.88;;;;;;;13.46;100.00;96184.13;4974419;28;20050;-73
2022/09/03 05:33:59;;;;;;;5.25;2.00;;;;;;;13.61;100.00;96184.88;4976023;28;20417;-72
2022/09/03 05:36:30;;;;;;;7.95;1.65;;;;;;;13.93;100.00;96172.97;4989759;28;20470;-73
2022/09/03 05:38:57;;;;;;;5.13;1.50;;;;;;;14.22;100.00;96184.63;4975701;28;20046;-73
2022/09/03 05:41:24;;;;;;;3.85;1.85;;;;;;;14.25;100.00;96177.09;4974539;28;21301;-73
2022/09/03 05:43:54;;;;;;;6.35;2.00;;;;;;;14.06;100.00;96172.34;4975607;28;20041;-73
2022/09/03 05:46:30;;;;;;;4.07;1.67;;;;;;;14.33;100.00;96168.44;4973994;28;20493;-74
2022/09/03 05:49:00;;;;;;;5.72;1.63;;;;;;;14.44;100.00;96186.13;4974599;28;20586;-73
2022/09/03 05:51:27;;;;;;;7.30;1.80;;;;;;;14.58;100.00;96181.75;4973020;28;20196;-73
2022/09/03 05:53:54;;;;;;;5.45;1.50;;;;;;;14.46;100.00;96174.00;4989112;28;20046;-73
2022/09/03 05:56:22;;;;;;;3.60;1.70;;;;;;;14.36;100.00;96173.25;4974938;28;20042;-73
2022/09/03 05:58:52;;;;;;;4.10;1.83;;;;;;;14.47;100.00;96172.94;4973980;28;20482;-73
2022/09/03 06:01:20;;;;;;;4.32;1.70;;;;;;;14.51;100.00;96180.44;4988163;28;20046;-74
2022/09/03 06:03:52;;;;;;;3.72;1.80;;;;;;;14.45;100.00;96180.47;4976549;28;20046;-73
2022/09/03 06:06:17;;;;;;;5.78;1.88;;;;;;;14.49;100.00;96191.50;4974132;28;20046;-73
2022/09/03 06:08:43;;;;;;;5.40;1.50;;;;;;;14.51;100.00;96180.44;4976959;28;20502;-73
2022/09/03 06:11:26;;;;;;;;;;;;;;;;;;;;;
2022/09/03 06:13:56;;;;;;;3.30;1.70;;;;;;;14.68;100.00;96194.31;4974664;28;20034;-73
2022/09/03 06:16:22;;;;;;;4.85;1.70;;;;;;;14.62;100.00;96177.38;4973553;28;20042;-73
2022/09/03 06:18:50;;;;;;;4.82;1.60;;;;;;;14.63;100.00;96188.97;4975366;28;20493;-73
2022/09/03 06:21:18;;;;;;;4.28;1.90;;;;;;;14.63;100.00;96197.88;4975287;28;20038;-73
2022/09/03 06:23:50;;;;;;;5.30;1.73;;;;;;;14.65;100.00;96197.59;4975206;28;20381;-73
2022/09/03 06:26:16;;;;;;;4.03;1.67;;;;;;;14.68;100.00;96208.59;4974596;28;20046;-73
2022/09/03 06:28:43;;;;;;;2.50;1.38;;;;;;;14.82;100.00;96210.66;4974364;28;20785;-73
2022/09/03 06:31:15;;;;;;;4.03;1.88;;;;;;;14.82;100.00;96210.66;4975012;28;20445;-74
2022/09/03 06:33:42;;;;;;;6.70;1.80;;;;;;;14.80;100.00;96215.53;4989460;28;20410;-73
2022/09/03 06:36:13;;;;;;;4.00;1.60;;;;;;;14.66;100.00;96210.78;4976529;28;20050;-73
2022/09/03 06:38:40;;;;;;;3.72;1.90;;;;;;;14.60;100.00;96213.78;4990139;28;20145;-73
2022/09/03 06:41:09;;;;;;;3.92;1.60;;;;;;;14.59;100.00;96218.34;4973958;28;20050;-73
2022/09/03 06:43:39;;;;;;;3.17;1.70;;;;;;;14.67;100.00;96222.34;4973805;28;20124;-74
2022/09/03 06:46:11;;;;;;;5.25;1.70;;;;;;;14.75;100.00;96217.16;4991110;28;20477;-73
2022/09/03 06:48:37;;;;;;;3.15;1.67;;;;;;;14.77;100.00;96212.28;4974346;28;20062;-73
2022/09/03 06:51:05;;;;;;;7.85;2.25;;;;;;;14.72;100.00;96215.03;4991607;28;20049;-73
2022/09/03 06:53:33;;;;;;;6.30;1.48;;;;;;;14.85;100.00;96212.78;4973817;28;20212;-74
2022/09/03 06:56:06;;;;;;;5.18;1.92;;;;;;;15.05;100.00;96220.72;4990845;28;20753;-74
2022/09/03 06:58:36;;;;;;;4.43;2.10;;;;;;;15.38;100.00;96210.97;4971808;28;20084;-74
2022/09/03 07:01:06;;;;;;;9.00;2.88;;;;;;;15.36;98.98;96215.03;4972743;28;20046;-73
2022/09/03 07:03:33;;;;;;;4.22;2.05;;;;;;;15.28;98.81;96214.56;4973330;28;20090;-73
2022/09/03 07:06:07;;;;;;;2.70;1.63;;;;;;;15.48;98.39;96208.16;4974491;28;20038;-74
2022/09/03 07:08:33;;;;;;;3.58;1.75;;;;;;;16.07;98.67;96206.19;4973708;28;20571;-74
2022/09/03 07:11:00;;;;;;;3.65;1.92;;;;;;;15.92;96.28;96211.78;4977514;28;20054;-73
2022/09/03 07:13:25;;;;;;;2.85;1.20;;;;;;;15.87;95.39;96215.31;4972002;28;20565;-74
2022/09/03 07:16:03;;;;;;;2.70;1.25;;;;;;;15.79;97.30;96215.97;4975139;28;20050;-73
2022/09/03 07:18:30;;;;;;;3.00;1.45;;;;;;;15.83;96.58;96219.69;4974353;28;20474;-74
2022/09/03 07:21:06;;;;;;;5.72;2.17;;;;;;;15.88;96.42;96208.88;4974179;28;20358;-74
2022/09/03 07:23:32;;;;;;;3.97;1.52;;;;;;;15.85;96.38;96206.72;4974964;28;20221;-75
2022/09/03 07:26:00;;;;;;;4.03;1.73;;;;;;;15.87;97.05;96213.47;4975128;28;20505;-75
2022/09/03 07:28:27;;;;;;;6.40;1.70;;;;;;;15.58;97.60;96209.97;4988745;28;20065;-75
2022/09/03 07:30:54;;;;;;;3.92;1.73;;;;;;;15.57;97.85;96211.06;4973031;28;20049;-75
2022/09/03 07:33:20;;;;;;;4.60;1.45;;;;;;;15.77;97.65;96210.84;4974814;28;20073;-75
2022/09/03 07:35:46;;;;;;;4.95;1.77;;;;;;;15.64;98.23;96213.44;4972668;28;20054;-74
2022/09/03 07:38:19;;;;;;;6.75;1.90;;;;;;;15.76;100.00;96213.84;4972457;28;20054;-75
2022/09/03 07:40:46;;;;;;;4.95;1.65;;;;;;;15.59;99.50;96215.06;4974655;28;20485;-75
2022/09/03 07:43:12;;;;;;;5.18;1.85;;;;;;;15.33;100.00;96214.53;4973026;28;20121;-75
2022/09/03 07:45:38;;;;;;;2.67;1.38;;;;;;;15.15;100.00;96219.81;4939237;28;20274;-75
2022/09/03 07:48:04;;;;;;;4.97;1.70;;;;;;;15.11;100.00;96224.97;4989703;28;20176;-75
2022/09/03 07:50:32;;;;;;;3.22;1.75;;;;;;;15.07;100.00;96226.63;4972454;28;20598;-74
2022/09/03 07:52:58;;;;;;;5.43;1.70;;;;;;;15.00;100.00;96223.44;4975505;28;20038;-74
2022/09/03 07:55:24;;;;;;;4.60;1.92;;;;;;;14.97;100.00;96218.63;4974148;28;20046;-74
2022/09/03 07:57:55;;;;;;;7.00;1.83;;;;;;;14.97;100.00;96226.69;4968644;28;20084;-73
2022/09/03 08:00:20;;;;;;;8.10;2.35;;;;;;;14.96;100.00;96228.59;4973527;28;20063;-74
2022/09/03 08:02:46;;;;;;;5.90;1.92;;;;;;;14.99;100.00;96228.03;4968701;28;20573;-74
2022/09/03 08:05:11;;;;;;;3.50;1.65;;;;;;;14.98;100.00;96231.81;4955168;28;20042;-73
2022/09/03 08:07:37;;;;;;;6.70;1.90;;;;;;;15.06;100.00;96235.78;4970166;28;20503;-73
2022/09/03 08:10:04;;;;;;;4.57;1.80;;;;;;;15.15;100.00;96228.69;4956325;28;20066;-74
2022/09/03 08:12:31;;;;;;;4.45;1.88;;;;;;;15.40;100.00;96243.03;4949834;28;20043;-73
2022/09/03 08:14:57;;;;;;;3.13;1.60;;;;;;;15.25;100.00;96236.72;4955843;28;20047;-74
2022/09/03 08:17:22;;;;;;;4.00;1.90;;;;;;;15.58;100.00;96250.44;4957707;28;20535;-74
2022/09/03 08:19:48;;;;;;;3.17;1.67;;;;;;;15.50;100.00;96243.75;4972961;28;20046;-74
2022/09/03 08:22:13;;;;;;;4.07;1.45;;;;;;;15.47;100.00;96240.81;4969975;28;20121;-74
2022/09/03 08:24:40;;;;;;;5.10;1.50;;;;;;;15.23;100.00;96243.47;4958511;28;20062;-74
2022/09/03 08:27:06;;;;;;;4.78;1.70;;;;;;;15.09;100.00;96259.47;4972060;28;20035;-74
2022/09/03 08:29:31;;;;;;;4.18;1.95;;;;;;;15.05;100.00;96263.81;4958931;28;20037;-74
2022/09/03 08:31:57;;;;;;;4.20;1.90;;;;;;;15.22;100.00;96250.75;4955929;28;20382;-74
2022/09/03 08:34:23;;;;;;;4.57;1.90;;;;;;;15.29;100.00;96253.91;4956442;28;21730;-75
2022/09/03 08:36:49;;;;;;;4.53;1.95;;;;;;;15.44;100.00;96249.47;4955521;28;20324;-74
2022/09/03 08:39:15;;;;;;;4.53;1.90;;;;;;;15.44;100.00;96254.88;4957533;28;20326;-75
2022/09/03 08:42:07;;;;;;;3.60;1.98;;;;;;;15.50;100.00;96261.84;4955894;28;20197;-74
2022/09/03 08:44:54;;;;;;;4.03;1.90;;;;;;;16.07;100.00;96260.16;4945919;28;20073;-74
2022/09/03 08:47:26;;;;;;;3.20;1.88;;;;;;;15.81;100.00;96268.56;4957892;28;20050;-75
2022/09/03 08:49:59;;;;;;;4.80;1.90;;;;;;;15.83;100.00;96269.06;4973884;28;20193;-74
2022/09/03 08:52:31;;;;;;;6.10;2.00;;;;;;;15.93;100.00;96257.34;4970925;28;20544;-74
2022/09/03 08:55:04;;;;;;;3.85;1.90;;;;;;;15.90;100.00;96267.94;4958240;28;20038;-74
2022/09/03 08:57:42;;;;;;;5.03;2.08;;;;;;;16.07;100.00;96265.56;4958810;28;20048;-74
2022/09/03 09:00:08;;;;;;;4.30;1.95;;;;;;;16.10;100.00;96263.09;4955785;28;20042;-75
2022/09/03 09:02:53;;;;;;;3.63;1.95;;;;;;;16.23;100.00;96253.50;4956694;28;20580;-74
2022/09/03 09:05:58;;;;;;;4.28;2.00;;;;;;;16.00;100.00;96273.19;4972562;28;20057;-75
2022/09/03 09:08:50;;;;;;;6.00;2.10;;;;;;;16.13;100.00;96267.13;4969784;28;20054;-75
2022/09/03 09:11:40;;;;;;;3.25;1.85;;;;;;;16.73;100.00;96263.94;4957047;28;20065;-75
2022/09/03 09:14:32;;;;;;;5.55;2.08;;;;;;;16.78;100.00;96267.38;4958124;28;20050;-75
2022/09/03 09:17:26;;;;;;;15.55;2.00;;;;;;;16.49;100.00;96261.25;4957159;28;20208;-74
2022/09/03 09:20:10;;;;;;;5.13;2.10;;;;;;;16.80;100.00;96258.97;4972360;28;20039;-73
2022/09/03 09:23:05;;;;;;;5.55;2.00;;;;;;;16.97;100.00;96270.88;4970625;28;20046;-74
2022/09/03 09:25:32;;;;;;;6.45;1.88;;;;;;;17.09;100.00;96269.63;4956195;28;20061;-73
2022/09/03 09:28:00;;;;;;;9.77;2.30;;;;;;;17.31;100.00;96264.38;4957168;28;20039;-73
2022/09/03 09:30:31;;;;;;;4.43;1.85;;;;;;;17.20;100.00;96262.97;4955014;28;20035;-73
2022/09/03 09:32:59;;;;;;;4.97;2.17;;;;;;;17.35;100.00;96259.19;4970501;28;20051;-73
2022/09/03 09:35:25;;;;;;;4.05;2.22;;;;;;;17.58;100.00;96260.94;4955681;28;20659;-73
2022/09/03 09:37:52;;;;;;;4.07;2.08;;;;;;;17.46;100.00;96264.13;4955343;28;20038;-73
2022/09/03 09:40:32;;;;;;;4.30;2.10;;;;;;;17.73;100.00;96257.19;4954911;28;20142;-73
2022/09/03 09:43:08;;;;;;;7.60;2.00;;;;;;;18.02;100.00;96262.34;4956115;28;20533;-73
2022/09/03 09:45:34;;;;;;;3.67;2.00;;;;;;;18.23;98.49;96251.91;4971400;28;20122;-73
2022/09/03 09:48:01;;;;;;;6.20;1.73;;;;;;;18.11;97.58;96260.53;4956909;28;20045;-73
2022/09/03 09:50:27;;;;;;;4.70;1.92;;;;;;;18.70;94.92;96260.72;4969720;28;20575;-73
2022/09/03 09:53:07;;;;;;;5.93;1.80;;;;;;;18.78;93.11;96263.50;4955411;28;20043;-74
2022/09/03 09:55:33;;;;;;;5.00;2.03;;;;;;;18.95;97.07;96252.00;4956159;28;20047;-73
2022/09/03 09:58:10;;;;;;;4.72;2.10;;;;;;;19.14;93.21;96257.22;4955500;28;20107;-73
2022/09/03 10:00:37;;;;;;;3.65;2.00;;;;;;;19.28;98.95;96265.31;4953609;28;20038;-74
2022/09/03 10:03:09;;;;;;;3.33;1.88;;;;;;;19.56;89.52;96255.94;4956229;28;20039;-73
2022/09/03 10:05:38;;;;;;;4.18;2.13;;;;;;;19.54;91.17;96263.59;4957505;28;20097;-74
2022/09/03 10:08:17;;;;;;;5.43;2.40;;;;;;;18.70;93.44;96269.63;4971190;28;20137;-73
2022/09/03 10:10:52;;;;;;;5.50;2.28;;;;;;;18.06;98.07;96285.00;4971500;28;20657;-73
2022/09/03 10:13:35;;;;;;;8.55;2.63;;;;;;;17.73;100.00;96286.97;4955539;28;21280;-73
2022/09/03 10:16:18;;;;;;;4.85;2.60;;;;;;;17.76;100.00;96286.38;4956094;28;20058;-73
2022/09/03 10:19:12;;;;;;;4.72;2.47;;;;;;;17.43;100.00;96282.84;4955154;28;20482;-74
2022/09/03 10:21:48;;;;;;;3.85;2.30;;;;;;;18.22;100.00;96288.22;4952632;28;20158;-74
2022/09/03 10:24:14;;;;;;;4.18;2.55;;;;;;;17.41;100.00;96287.75;4958392;28;20481;-74
2022/09/03 10:26:44;;;;;;;4.88;2.50;;;;;;;17.59;100.00;96281.50;4956154;28;20885;-73
2022/09/03 10:29:14;;;;;;;7.75;2.33;;;;;;;17.41;100.00;96280.44;4941204;28;20039;-73
2022/09/03 10:31:56;;;;;;;6.10;2.33;;;;;;;17.52;100.00;96284.59;4977644;28;20767;-73
2022/09/03 10:34:57;;;;;;;8.20;2.80;;;;;;;17.43;100.00;96289.09;4974113;28;20073;-73
2022/09/03 10:37:37;;;;;;;3.92;2.05;;;;;;;17.53;100.00;96290.81;4973095;28;20065;-74
2022/09/03 10:40:10;;;;;;;5.10;2.28;;;;;;;18.29;100.00;96289.44;4976367;28;20093;-74
2022/09/03 10:42:59;;;;;;;7.25;2.50;;;;;;;19.00;97.98;96275.47;4974513;28;20057;-73
2022/09/03 10:45:35;;;;;;;7.57;2.40;;;;;;;19.53;93.58;96286.38;4973805;28;20137;-73
2022/09/03 10:48:18;;;;;;;8.93;2.70;;;;;;;19.32;94.73;96274.44;4973751;28;20042;-73
2022/09/03 10:50:54;;;;;;;4.00;2.15;;;;;;;18.77;99.11;96278.16;4973107;28;20052;-74
2022/09/03 10:53:30;;;;;;;4.75;2.45;;;;;;;19.44;98.37;96266.53;4975543;28;20729;-74
2022/09/03 10:56:01;;;;;;;4.65;2.53;;;;;;;20.57;90.72;96279.56;4989522;28;20034;-73
2022/09/03 10:58:46;;;;;;;5.28;2.30;;;;;;;21.80;84.94;96275.72;4973115;28;20504;-74
2022/09/03 11:01:23;;;;;;;5.20;2.20;;;;;;;21.93;86.51;96280.94;4973412;28;20128;-74
2022/09/03 11:04:13;;;;;;;4.70;2.17;;;;;;;21.46;84.40;96276.56;4973782;28;20076;-74
2022/09/03 11:07:08;;;;;;;4.53;2.08;;;;;;;21.25;89.46;96263.63;4974362;28;20077;-74
2022/09/03 11:09:44;;;;;;;6.97;1.98;;;;;;;22.89;83.02;96270.44;4975685;28;20145;-74
2022/09/03 11:12:24;;;;;;;5.88;2.40;;;;;;;24.40;70.85;96264.44;4989694;28;20481;-74
2022/09/03 11:15:01;;;;;;;4.25;2.05;;;;;;;24.62;70.52;96263.19;4974305;28;20038;-74
2022/09/03 11:17:49;;;;;;;5.72;2.20;;;;;;;25.10;65.09;96267.00;4974182;28;20397;-74
2022/09/03 11:20:19;;;;;;;3.50;1.95;;;;;;;28.07;52.72;96252.84;4975730;28;20046;-74
2022/09/03 11:22:48;;;;;;;5.03;2.30;;;;;;;28.07;46.41;96255.59;4973587;28;20120;-74
2022/09/03 11:25:17;;;;;;;4.20;1.90;;;;;;;23.83;72.92;96261.75;4974901;28;20144;-74
2022/09/03 11:27:51;;;;;;;4.18;2.10;;;;;;;21.80;86.33;96270.28;4975310;28;20072;-74
2022/09/03 11:30:46;;;;;;;4.38;2.30;;;;;;;;;;4975169;28;20084;-73
2022/09/03 11:33:13;;;;;;;6.82;2.47;;;;;;;20.68;91.83;96261.00;4977016;28;20057;-73
2022/09/03 11:35:41;;;;;;;3.40;2.10;;;;;;;20.10;94.86;96253.97;4974385;28;20122;-74
2022/09/03 11:38:17;;;;;;;7.28;2.70;;;;;;;19.61;97.31;96258.56;4971855;28;20049;-74
2022/09/03 11:41:05;;;;;;;7.72;2.70;;;;;;;19.75;97.88;96261.16;4974940;28;20173;-73
2022/09/03 11:43:32;;;;;;;5.15;2.42;;;;;;;20.14;96.90;96254.94;4970120;28;20458;-74
2022/09/03 11:46:25;;;;;;;6.55;2.38;;;;;;;20.03;96.00;96251.72;4974478;28;20454;-74
2022/09/03 11:49:00;;;;;;;6.85;2.90;;;;;;;19.97;96.20;96257.59;4974032;28;20042;-73
2022/09/03 11:51:29;;;;;;;4.68;2.25;;;;;;;20.06;96.45;96257.63;4990246;28;20081;-73
2022/09/03 11:54:05;;;;;;;6.80;2.53;;;;;;;19.98;96.36;96256.47;4978737;28;20038;-73
2022/09/03 11:56:33;;;;;;;7.55;2.95;;;;;;;20.67;92.54;96251.25;4977548;28;20077;-74